createdAt,value
2017-08-17T00:01:39.096Z,18.40
2017-08-17T00:04:05.039Z,18.40
2017-08-17T00:06:30.991Z,18.50
2017-08-17T00:08:57.019Z,18.40
2017-08-17T00:11:23.708Z,18.40
2017-08-17T00:13:49.662Z,18.40
2017-08-17T00:16:16.398Z,18.30
2017-08-17T00:18:42.394Z,18.30
2017-08-17T00:21:09.114Z,18.50
2017-08-17T00:23:35.082Z,18.50
2017-08-17T00:26:01.057Z,18.50
2017-08-17T00:28:27.078Z,18.50
2017-08-17T00:30:53.034Z,18.50
2017-08-17T00:33:19.001Z,18.50
2017-08-17T00:35:44.982Z,18.40
2017-08-17T00:38:10.934Z,18.50
2017-08-17T00:40:36.919Z,18.40
2017-08-17T00:43:02.858Z,18.50
2017-08-17T00:45:28.852Z,18.50
2017-08-17T00:47:54.798Z,18.50
2017-08-17T00:50:20.742Z,18.40
2017-08-17T00:52:46.738Z,18.40
2017-08-17T00:55:12.722Z,18.50
2017-08-17T00:57:39.415Z,18.60
2017-08-17T01:00:05.402Z,18.50
2017-08-17T01:02:31.347Z,18.40
2017-08-17T01:04:57.287Z,18.50
2017-08-17T01:07:23.263Z,18.40
2017-08-17T01:09:49.218Z,18.40
2017-08-17T01:12:15.197Z,18.40
2017-08-17T01:14:41.183Z,18.40
2017-08-17T01:17:07.131Z,18.40
2017-08-17T01:19:33.110Z,18.40
2017-08-17T01:21:59.044Z,18.40
2017-08-17T01:24:25.722Z,18.50
2017-08-17T01:26:51.678Z,18.50
2017-08-17T01:29:18.378Z,18.50
2017-08-17T01:31:44.326Z,18.40
2017-08-17T01:34:10.284Z,18.40
2017-08-17T01:36:36.208Z,18.40
2017-08-17T01:39:02.146Z,18.30
2017-08-17T01:41:28.096Z,18.30
2017-08-17T01:43:54.024Z,18.40
2017-08-17T01:46:20.036Z,18.30
2017-08-17T01:48:46.019Z,18.30
2017-08-17T01:51:11.980Z,18.40
2017-08-17T01:53:37.974Z,18.30
2017-08-17T01:56:03.897Z,18.20
2017-08-17T01:58:29.824Z,18.10
2017-08-17T02:00:55.797Z,18.10
2017-08-17T02:03:21.724Z,18.10
2017-08-17T02:05:47.661Z,18.00
2017-08-17T02:08:13.650Z,18.00
2017-08-17T02:10:39.589Z,18.10
2017-08-17T02:13:05.583Z,18.20
2017-08-17T02:15:31.523Z,18.30
2017-08-17T02:17:57.460Z,18.10
2017-08-17T02:20:24.184Z,18.10
2017-08-17T02:22:50.878Z,18.10
2017-08-17T02:25:16.824Z,18.10
2017-08-17T02:27:42.814Z,18.00
2017-08-17T02:30:09.504Z,17.90
2017-08-17T02:32:35.498Z,17.90
2017-08-17T02:35:01.448Z,18.00
2017-08-17T02:37:27.387Z,18.00
2017-08-17T02:39:53.376Z,18.00
2017-08-17T02:42:20.057Z,17.90
2017-08-17T02:44:46.000Z,18.00
2017-08-17T02:47:11.993Z,18.00
2017-08-17T02:49:37.972Z,18.00
2017-08-17T02:52:03.926Z,18.00
2017-08-17T02:54:29.900Z,17.90
2017-08-17T02:56:55.864Z,17.80
2017-08-17T02:59:21.849Z,17.60
2017-08-17T03:01:47.793Z,17.60
2017-08-17T03:04:13.832Z,17.70
2017-08-17T03:06:39.804Z,17.60
2017-08-17T03:09:05.768Z,17.60
2017-08-17T03:11:31.808Z,17.70
2017-08-17T03:13:57.756Z,17.70
2017-08-17T03:16:23.828Z,17.80
2017-08-17T03:18:50.564Z,17.70
2017-08-17T03:21:16.510Z,17.70
2017-08-17T03:23:42.504Z,17.70
2017-08-17T03:26:08.441Z,17.60
2017-08-17T03:28:34.381Z,17.60
2017-08-17T03:31:01.093Z,17.50
2017-08-17T03:33:27.060Z,17.50
2017-08-17T03:35:53.063Z,17.50
2017-08-17T03:38:19.012Z,17.50
2017-08-17T03:40:45.013Z,17.50
2017-08-17T03:43:11.009Z,17.50
2017-08-17T03:45:36.953Z,17.40
2017-08-17T03:48:03.680Z,17.50
2017-08-17T03:50:29.617Z,17.50
2017-08-17T03:52:55.613Z,17.60
2017-08-17T03:55:21.583Z,17.50
2017-08-17T03:57:47.542Z,17.60
2017-08-17T04:00:13.528Z,17.60
2017-08-17T04:02:40.221Z,17.60
2017-08-17T04:05:06.170Z,17.60
2017-08-17T04:07:32.148Z,17.60
2017-08-17T04:09:58.094Z,17.60
2017-08-17T04:12:24.107Z,17.60
2017-08-17T04:14:50.060Z,17.70
2017-08-17T04:17:16.027Z,17.60
2017-08-17T04:19:42.000Z,17.70
2017-08-17T04:22:07.937Z,17.60
2017-08-17T04:24:33.896Z,17.60
2017-08-17T04:26:59.831Z,17.70
2017-08-17T04:29:26.551Z,17.60
2017-08-17T04:31:52.493Z,17.60
2017-08-17T04:34:18.477Z,17.60
2017-08-17T04:36:44.448Z,17.60
2017-08-17T04:39:10.397Z,17.60
2017-08-17T04:41:36.420Z,17.50
2017-08-17T04:44:02.360Z,17.60
2017-08-17T04:46:28.306Z,17.60
2017-08-17T04:48:55.024Z,17.70
2017-08-17T04:51:20.982Z,17.70
2017-08-17T04:53:47.005Z,17.60
2017-08-17T04:56:31.733Z,17.60
2017-08-17T04:58:57.734Z,17.40
2017-08-17T05:01:23.672Z,17.40
2017-08-17T05:03:49.772Z,17.30
2017-08-17T05:06:15.730Z,17.20
2017-08-17T05:08:42.469Z,17.30
2017-08-17T05:11:08.444Z,17.30
2017-08-17T05:13:34.380Z,17.30
2017-08-17T05:16:01.117Z,17.30
2017-08-17T05:18:27.073Z,17.30
2017-08-17T05:20:53.024Z,17.40
2017-08-17T05:23:19.725Z,17.40
2017-08-17T05:25:45.678Z,17.30
2017-08-17T05:28:11.674Z,17.30
2017-08-17T05:30:37.620Z,17.30
2017-08-17T05:33:03.570Z,17.30
2017-08-17T05:35:30.309Z,17.40
2017-08-17T05:37:56.298Z,17.40
2017-08-17T05:40:22.237Z,17.40
2017-08-17T05:42:48.188Z,17.40
2017-08-17T05:45:14.216Z,17.40
2017-08-17T05:47:40.166Z,17.40
2017-08-17T05:50:06.140Z,17.40
2017-08-17T05:52:32.166Z,17.40
2017-08-17T05:54:58.125Z,17.50
2017-08-17T05:57:24.068Z,17.40
2017-08-17T05:59:50.835Z,17.40
2017-08-17T06:02:16.813Z,17.40
2017-08-17T06:04:42.793Z,17.50
2017-08-17T06:07:08.740Z,17.50
2017-08-17T06:09:34.693Z,17.50
2017-08-17T06:12:00.686Z,17.50
2017-08-17T06:14:26.630Z,17.60
2017-08-17T06:16:52.604Z,17.70
2017-08-17T06:19:18.625Z,17.60
2017-08-17T06:21:44.568Z,17.70
2017-08-17T06:24:10.508Z,17.70
2017-08-17T06:26:36.485Z,17.70
2017-08-17T06:29:02.441Z,17.80
2017-08-17T06:31:29.181Z,17.70
2017-08-17T06:33:55.137Z,17.70
2017-08-17T06:36:21.116Z,17.80
2017-08-17T06:38:47.097Z,17.90
2017-08-17T06:41:13.055Z,18.00
2017-08-17T06:43:39.057Z,18.00
2017-08-17T06:46:04.996Z,18.00
2017-08-17T06:48:30.943Z,18.10
2017-08-17T06:50:56.921Z,18.10
2017-08-17T06:53:23.632Z,18.10
2017-08-17T06:55:49.608Z,18.10
2017-08-17T06:58:15.581Z,18.10
2017-08-17T07:00:41.565Z,18.20
2017-08-17T07:03:07.518Z,18.30
2017-08-17T07:05:33.497Z,18.30
2017-08-17T07:07:59.476Z,18.30
2017-08-17T07:10:25.424Z,18.40
2017-08-17T07:12:51.380Z,18.50
2017-08-17T07:15:17.365Z,18.50
2017-08-17T07:17:43.303Z,18.50
2017-08-17T07:20:09.271Z,18.60
2017-08-17T07:22:35.216Z,18.60
2017-08-17T07:25:01.933Z,18.80
2017-08-17T07:27:27.872Z,18.70
2017-08-17T07:29:53.845Z,18.80
2017-08-17T07:32:19.788Z,18.90
2017-08-17T07:34:45.759Z,18.90
2017-08-17T07:37:11.741Z,19.00
2017-08-17T07:39:37.687Z,19.00
2017-08-17T07:42:04.389Z,19.20
2017-08-17T07:44:30.364Z,19.10
2017-08-17T07:46:56.300Z,19.20
2017-08-17T07:49:22.268Z,19.30
2017-08-17T07:51:48.217Z,19.30
2017-08-17T07:54:14.205Z,19.40
2017-08-17T07:56:40.176Z,19.40
2017-08-17T07:59:06.856Z,19.60
2017-08-17T08:01:32.852Z,19.60
2017-08-17T08:03:58.784Z,19.70
2017-08-17T08:06:24.729Z,19.70
2017-08-17T08:08:50.700Z,19.80
2017-08-17T08:11:16.676Z,19.90
2017-08-17T08:13:42.622Z,20.00
2017-08-17T08:16:08.573Z,20.10
2017-08-17T08:18:34.540Z,20.20
2017-08-17T08:21:00.508Z,20.30
2017-08-17T08:23:26.441Z,20.30
2017-08-17T08:25:52.420Z,20.40
2017-08-17T08:28:18.366Z,20.60
2017-08-17T08:30:45.048Z,20.80
2017-08-17T08:33:11.012Z,20.70
2017-08-17T08:35:37.716Z,20.80
2017-08-17T08:38:03.665Z,20.80
2017-08-17T08:40:29.645Z,20.90
2017-08-17T08:42:56.326Z,21.10
2017-08-17T08:45:22.308Z,21.10
2017-08-17T08:47:48.248Z,21.20
2017-08-17T08:50:14.194Z,21.20
2017-08-17T08:52:40.948Z,21.40
2017-08-17T08:55:06.928Z,21.40
2017-08-17T08:57:33.612Z,21.50
2017-08-17T08:59:59.568Z,21.50
2017-08-17T09:02:26.281Z,21.70
2017-08-17T09:04:52.257Z,21.70
2017-08-17T09:07:18.249Z,21.80
2017-08-17T09:09:44.188Z,21.80
2017-08-17T09:12:10.125Z,21.90
2017-08-17T09:14:36.846Z,22.10
2017-08-17T09:17:03.541Z,22.20
2017-08-17T09:19:29.531Z,22.10
2017-08-17T09:21:55.478Z,22.20
2017-08-17T09:24:21.408Z,22.40
2017-08-17T09:26:47.381Z,22.50
2017-08-17T09:29:13.324Z,22.60
2017-08-17T09:31:39.298Z,22.60
2017-08-17T09:34:05.249Z,22.70
2017-08-17T09:36:31.957Z,23.00
2017-08-17T09:38:57.933Z,23.00
2017-08-17T09:41:23.868Z,23.00
2017-08-17T09:43:49.844Z,23.10
2017-08-17T09:46:15.797Z,23.10
2017-08-17T09:48:42.529Z,23.20
2017-08-17T09:51:09.225Z,23.30
2017-08-17T09:53:35.208Z,23.30
2017-08-17T09:56:01.137Z,23.30
2017-08-17T09:58:27.072Z,23.30
2017-08-17T10:00:53.100Z,23.40
2017-08-17T10:03:19.776Z,23.50
2017-08-17T10:05:45.800Z,23.50
2017-08-17T10:08:11.764Z,23.50
2017-08-17T10:10:37.718Z,23.50
2017-08-17T10:13:03.698Z,23.50
2017-08-17T10:15:29.640Z,23.60
2017-08-17T10:17:55.603Z,23.60
2017-08-17T10:20:21.545Z,23.60
2017-08-17T10:22:47.568Z,23.60
2017-08-17T10:25:13.509Z,23.60
2017-08-17T10:27:39.461Z,23.70
2017-08-17T10:30:05.509Z,23.80
2017-08-17T10:32:32.197Z,23.90
2017-08-17T10:34:58.137Z,23.80
2017-08-17T10:37:24.124Z,23.90
2017-08-17T10:39:50.113Z,23.90
2017-08-17T10:42:16.069Z,23.90
2017-08-17T10:44:42.816Z,23.90
2017-08-17T10:47:08.848Z,23.90
2017-08-17T10:49:34.790Z,24.00
2017-08-17T10:52:00.798Z,24.20
2017-08-17T10:54:26.735Z,24.20
2017-08-17T10:56:53.453Z,24.30
2017-08-17T10:59:20.164Z,24.40
2017-08-17T11:01:46.124Z,24.40
2017-08-17T11:04:12.102Z,24.50
2017-08-17T11:06:38.046Z,24.60
2017-08-17T11:09:04.045Z,24.70
2017-08-17T11:11:29.996Z,24.70
2017-08-17T11:13:55.938Z,24.80
2017-08-17T11:16:22.666Z,24.80
2017-08-17T11:18:49.353Z,24.80
2017-08-17T11:21:15.300Z,24.70
2017-08-17T11:23:41.295Z,24.70
2017-08-17T11:26:07.245Z,24.70
2017-08-17T11:28:33.230Z,24.80
2017-08-17T11:30:59.217Z,24.90
2017-08-17T11:33:25.957Z,25.10
2017-08-17T11:35:51.906Z,25.10
2017-08-17T11:38:17.840Z,25.20
2017-08-17T11:40:43.830Z,25.40
2017-08-17T11:43:09.837Z,25.40
2017-08-17T11:45:35.784Z,25.40
2017-08-17T11:48:02.472Z,25.30
2017-08-17T11:50:28.460Z,25.30
2017-08-17T11:52:54.446Z,25.40
2017-08-17T11:55:20.388Z,25.40
2017-08-17T11:57:46.374Z,25.50
2017-08-17T12:00:12.370Z,25.50
2017-08-17T12:02:38.389Z,25.50
2017-08-17T12:05:04.332Z,25.50
2017-08-17T12:07:30.288Z,25.50
2017-08-17T12:09:56.260Z,25.50
2017-08-17T12:12:22.202Z,25.60
2017-08-17T12:14:48.169Z,25.60
2017-08-17T12:17:14.249Z,25.80
2017-08-17T12:19:40.221Z,26.00
2017-08-17T12:22:06.168Z,26.10
2017-08-17T12:24:32.888Z,26.30
2017-08-17T12:26:59.583Z,26.40
2017-08-17T12:29:25.577Z,26.40
2017-08-17T12:31:51.526Z,26.40
2017-08-17T12:34:18.247Z,26.70
2017-08-17T12:36:44.192Z,26.70
2017-08-17T12:39:10.202Z,26.80
2017-08-17T12:41:36.204Z,27.00
2017-08-17T12:44:02.156Z,26.90
2017-08-17T12:46:28.144Z,26.90
2017-08-17T12:48:54.077Z,27.00
2017-08-17T12:51:20.016Z,27.30
2017-08-17T12:53:46.746Z,28.00
2017-08-17T12:56:13.445Z,28.20
2017-08-17T12:58:39.408Z,28.20
2017-08-17T13:01:05.396Z,28.40
2017-08-17T13:03:31.336Z,29.00
2017-08-17T13:05:57.287Z,29.30
2017-08-17T13:08:23.260Z,29.60
2017-08-17T13:10:49.253Z,29.90
2017-08-17T13:13:15.333Z,30.30
2017-08-17T13:15:41.291Z,30.20
2017-08-17T13:18:07.281Z,30.90
2017-08-17T13:20:33.232Z,30.70
2017-08-17T13:22:59.226Z,30.80
2017-08-17T13:25:25.168Z,30.70
2017-08-17T13:27:51.844Z,31.70
2017-08-17T13:30:17.830Z,31.70
2017-08-17T13:32:43.857Z,31.30
2017-08-17T13:35:09.803Z,31.30
2017-08-17T13:37:35.785Z,31.10
2017-08-17T13:40:01.823Z,30.90
2017-08-17T13:42:28.692Z,31.50
2017-08-17T13:44:54.688Z,31.50
2017-08-17T13:47:20.661Z,31.30
2017-08-17T13:49:46.652Z,30.90
2017-08-17T13:52:12.584Z,31.00
2017-08-17T13:54:38.561Z,30.70
2017-08-17T13:57:04.544Z,30.20
2017-08-17T13:59:30.562Z,29.80
2017-08-17T14:01:56.505Z,29.60
2017-08-17T14:04:22.452Z,29.70
2017-08-17T14:06:48.448Z,29.40
2017-08-17T14:09:15.185Z,28.80
2017-08-17T14:11:41.132Z,28.70
2017-08-17T14:14:07.100Z,28.80
2017-08-17T14:16:33.052Z,28.80
2017-08-17T14:18:59.040Z,28.40
2017-08-17T14:21:24.978Z,28.40
2017-08-17T14:23:50.920Z,28.60
2017-08-17T14:26:17.656Z,28.10
2017-08-17T14:28:43.601Z,28.10
2017-08-17T14:31:09.540Z,27.80
2017-08-17T14:33:35.504Z,27.70
2017-08-17T14:36:01.453Z,27.80
2017-08-17T14:38:27.435Z,27.90
2017-08-17T14:40:53.377Z,27.80
2017-08-17T14:43:19.329Z,27.80
2017-08-17T14:45:45.322Z,27.50
2017-08-17T14:48:11.321Z,27.50
2017-08-17T14:50:38.058Z,27.50
2017-08-17T14:53:04.065Z,27.40
2017-08-17T14:55:30.077Z,27.50
2017-08-17T14:57:56.051Z,27.30
2017-08-17T15:00:21.984Z,27.30
2017-08-17T15:02:48.754Z,27.40
2017-08-17T15:05:14.697Z,27.40
2017-08-17T15:08:17.393Z,27.30
2017-08-17T15:10:43.346Z,27.40
2017-08-17T15:13:09.314Z,27.40
2017-08-17T15:15:35.320Z,27.30
2017-08-17T15:18:01.268Z,27.40
2017-08-17T15:20:27.252Z,27.20
2017-08-17T15:22:53.198Z,27.20
2017-08-17T15:25:19.174Z,27.30
2017-08-17T15:27:45.157Z,27.30
2017-08-17T15:30:11.100Z,27.40
2017-08-17T15:32:37.085Z,27.40
2017-08-17T15:35:03.041Z,27.20
2017-08-17T15:37:29.027Z,27.20
2017-08-17T15:39:54.976Z,27.00
2017-08-17T15:42:21.729Z,27.10
2017-08-17T15:44:47.753Z,27.10
2017-08-17T15:47:13.718Z,27.10
2017-08-17T15:49:40.432Z,27.30
2017-08-17T15:52:06.385Z,27.30
2017-08-17T15:54:32.394Z,27.30
2017-08-17T15:56:58.400Z,27.20
2017-08-17T15:59:25.058Z,27.20
2017-08-17T16:01:51.195Z,27.20
2017-08-17T16:04:17.224Z,27.00
2017-08-17T16:06:43.200Z,27.00
2017-08-17T16:09:09.224Z,27.00
2017-08-17T16:11:35.182Z,27.20
2017-08-17T16:14:01.182Z,27.10
2017-08-17T16:16:27.128Z,27.10
2017-08-17T16:18:53.868Z,26.70
2017-08-17T16:21:19.875Z,26.70
2017-08-17T16:23:45.824Z,26.80
2017-08-17T16:26:11.864Z,26.80
2017-08-17T16:28:37.812Z,26.90
2017-08-17T16:31:03.772Z,26.90
2017-08-17T16:33:29.760Z,26.70
2017-08-17T16:35:55.751Z,26.90
2017-08-17T16:38:21.754Z,26.80
2017-08-17T16:40:52.713Z,26.80
2017-08-17T16:43:18.766Z,26.80
2017-08-17T16:45:45.461Z,26.80
2017-08-17T16:48:11.434Z,26.80
2017-08-17T16:50:37.393Z,26.80
2017-08-17T16:53:03.378Z,26.70
2017-08-17T16:55:29.330Z,26.70
2017-08-17T16:57:55.328Z,26.70
2017-08-17T17:00:21.294Z,26.60
2017-08-17T17:02:47.296Z,26.50
2017-08-17T17:05:13.293Z,26.50
2017-08-17T17:07:39.253Z,26.70
2017-08-17T17:10:05.936Z,26.50
2017-08-17T17:12:31.916Z,26.50
2017-08-17T17:14:57.921Z,26.40
2017-08-17T17:17:23.876Z,26.40
2017-08-17T17:19:49.840Z,26.40
2017-08-17T17:22:15.812Z,26.30
2017-08-17T17:24:41.789Z,26.20
2017-08-17T17:27:07.780Z,26.20
2017-08-17T17:29:33.721Z,26.20
2017-08-17T17:31:59.685Z,26.20
2017-08-17T17:34:25.709Z,26.00
2017-08-17T17:36:51.672Z,26.00
2017-08-17T17:39:21.374Z,25.90
2017-08-17T17:41:47.799Z,25.90
2017-08-17T17:44:13.773Z,25.90
2017-08-17T17:46:39.716Z,26.00
2017-08-17T17:49:06.455Z,25.70
2017-08-17T17:51:32.400Z,25.70
2017-08-17T17:53:58.348Z,25.70
2017-08-17T17:56:24.352Z,25.80
2017-08-17T17:58:50.348Z,25.70
2017-08-17T18:01:16.338Z,25.60
2017-08-17T18:03:42.289Z,25.70
2017-08-17T18:06:08.981Z,25.60
2017-08-17T18:08:35.048Z,25.60
2017-08-17T18:11:00.988Z,25.60
2017-08-17T18:13:26.937Z,25.60
2017-08-17T18:15:53.686Z,25.50
2017-08-17T18:18:19.644Z,25.50
2017-08-17T18:20:45.599Z,25.50
2017-08-17T18:23:11.608Z,25.50
2017-08-17T18:25:37.565Z,25.40
2017-08-17T18:28:03.522Z,25.40
2017-08-17T18:30:29.520Z,25.40
2017-08-17T18:32:55.482Z,25.30
2017-08-17T18:35:21.505Z,25.30
2017-08-17T18:37:47.505Z,25.30
2017-08-17T18:40:13.453Z,25.20
2017-08-17T18:42:40.195Z,25.10
2017-08-17T18:45:06.144Z,25.10
2017-08-17T18:47:32.098Z,25.20
2017-08-17T18:49:58.820Z,25.20
2017-08-17T18:52:25.505Z,25.20
2017-08-17T18:54:51.505Z,25.20
2017-08-17T18:57:17.489Z,25.10
2017-08-17T18:59:43.433Z,25.00
2017-08-17T19:02:09.429Z,25.10
2017-08-17T19:04:35.380Z,25.00
2017-08-17T19:07:01.316Z,25.00
2017-08-17T19:09:27.309Z,25.00
2017-08-17T19:11:53.282Z,25.00
2017-08-17T19:14:19.289Z,25.10
2017-08-17T19:16:45.277Z,25.00
2017-08-17T19:19:11.212Z,25.00
2017-08-17T19:21:37.212Z,25.00
2017-08-17T19:24:03.157Z,25.00
2017-08-17T19:26:29.099Z,25.00
2017-08-17T19:28:55.105Z,24.90
2017-08-17T19:31:21.074Z,24.90
2017-08-17T19:33:47.858Z,24.80
2017-08-17T19:36:13.799Z,24.80
2017-08-17T19:38:40.479Z,24.70
2017-08-17T19:41:06.525Z,24.70
2017-08-17T19:43:32.473Z,24.70
2017-08-17T19:45:58.489Z,24.70
2017-08-17T19:48:24.505Z,24.60
2017-08-17T19:50:50.455Z,24.60
2017-08-17T19:53:16.430Z,24.60
2017-08-17T19:55:42.644Z,24.60
2017-08-17T19:58:08.585Z,24.50
2017-08-17T20:00:34.533Z,24.40
2017-08-17T20:03:00.533Z,24.40
2017-08-17T20:05:26.486Z,24.30
2017-08-17T20:07:52.433Z,24.30
2017-08-17T20:10:19.202Z,24.30
2017-08-17T20:12:45.140Z,24.30
2017-08-17T20:15:11.890Z,24.20
2017-08-17T20:17:37.837Z,24.20
2017-08-17T20:20:03.814Z,24.20
2017-08-17T20:22:29.812Z,24.10
2017-08-17T20:24:55.785Z,24.20
2017-08-17T20:27:22.533Z,24.20
2017-08-17T20:29:48.612Z,24.20
2017-08-17T20:32:14.597Z,24.10
2017-08-17T20:34:40.532Z,24.10
2017-08-17T20:37:06.548Z,24.20
2017-08-17T20:39:32.520Z,24.20
2017-08-17T20:41:58.513Z,24.20
2017-08-17T20:44:24.473Z,24.10
2017-08-17T20:46:51.182Z,24.10
2017-08-17T20:49:17.157Z,24.10
2017-08-17T20:51:43.100Z,24.10
2017-08-17T20:54:09.043Z,24.10
2017-08-17T20:56:35.034Z,24.10
2017-08-17T20:59:01.738Z,24.00
2017-08-17T21:01:27.713Z,24.00
2017-08-17T21:03:53.695Z,24.00
2017-08-17T21:06:19.705Z,24.10
2017-08-17T21:08:45.737Z,24.00
2017-08-17T21:11:11.708Z,23.90
2017-08-17T21:13:37.656Z,23.90
2017-08-17T21:16:03.633Z,23.90
2017-08-17T21:18:30.316Z,23.90
2017-08-17T21:20:56.288Z,23.90
2017-08-17T21:23:22.297Z,23.90
2017-08-17T21:25:48.344Z,23.90
2017-08-17T21:28:14.292Z,23.80
2017-08-17T21:30:41.017Z,23.80
2017-08-17T21:33:07.728Z,23.70
2017-08-17T21:35:33.676Z,23.70
2017-08-17T21:37:59.657Z,23.70
2017-08-17T21:40:25.600Z,23.70
2017-08-17T21:42:51.556Z,23.70
2017-08-17T21:45:17.544Z,23.70
2017-08-17T21:47:43.484Z,23.60
2017-08-17T21:50:09.456Z,23.60
2017-08-17T21:52:35.464Z,23.60
2017-08-17T21:55:01.409Z,23.60
2017-08-17T21:57:28.093Z,23.50
2017-08-17T21:59:54.081Z,23.50
2017-08-17T22:02:20.131Z,23.50
2017-08-17T22:04:46.109Z,23.50
2017-08-17T22:07:12.088Z,23.40
2017-08-17T22:09:38.069Z,23.40
2017-08-17T22:12:04.806Z,23.40
2017-08-17T22:14:30.748Z,23.30
2017-08-17T22:16:56.698Z,23.30
2017-08-17T22:19:23.442Z,23.30
2017-08-17T22:21:49.467Z,23.30
2017-08-17T22:24:15.441Z,23.30
2017-08-17T22:26:42.205Z,23.30
2017-08-17T22:29:08.152Z,23.30
2017-08-17T22:31:34.116Z,23.20
2017-08-17T22:34:00.093Z,23.00
2017-08-17T22:36:26.130Z,22.90
2017-08-17T22:38:52.125Z,22.90
2017-08-17T22:41:18.074Z,22.90
2017-08-17T22:43:44.138Z,23.00
2017-08-17T22:46:10.105Z,22.90
2017-08-17T22:48:36.080Z,22.80
2017-08-17T22:51:02.109Z,22.80
2017-08-17T22:53:28.057Z,22.90
2017-08-17T22:55:54.780Z,22.80
2017-08-17T22:58:20.787Z,22.90
2017-08-17T23:00:46.779Z,22.90
2017-08-17T23:03:12.770Z,22.80
2017-08-17T23:05:38.713Z,22.90
2017-08-17T23:08:04.688Z,22.90
2017-08-17T23:10:30.670Z,22.80
2017-08-17T23:12:56.630Z,22.80
2017-08-17T23:15:22.668Z,22.80
2017-08-17T23:17:49.389Z,22.80
2017-08-17T23:20:16.085Z,22.80
2017-08-17T23:22:42.062Z,22.80
2017-08-17T23:25:08.010Z,22.60
2017-08-17T23:27:34.007Z,22.50
2017-08-17T23:29:59.960Z,22.50
2017-08-17T23:32:25.916Z,22.40
2017-08-17T23:34:51.937Z,22.40
2017-08-17T23:37:17.898Z,22.40
2017-08-17T23:39:43.848Z,22.50
2017-08-17T23:42:09.827Z,22.50
2017-08-17T23:44:35.769Z,22.60
2017-08-17T23:47:01.750Z,22.60
2017-08-17T23:49:27.734Z,22.60
2017-08-17T23:51:53.713Z,22.50
2017-08-17T23:54:19.741Z,22.60
2017-08-17T23:56:45.698Z,22.60
2017-08-17T23:59:11.657Z,22.50
